Time;durP1;ratioP1;P1;durP2;ratioP2;P2;SDS_P1;SDS_P2;PMS_P1;PMS_P2;Temp;Humidity;BMP_temperature;BMP_pressure;BME280_temperature;BME280_humidity;BME280_pressure;Samples;Min_cycle;Max_cycle;Signal;HPM_P1;HPM_P2
2023/02/21 02:15:23;;;;;;;2.23;1.23;;;;;;;;;;5112356;28;20199;-86
2023/02/21 02:18:02;;;;;;;1.27;1.17;;;;;;;;;;5095108;28;20203;-85
2023/02/21 02:21:05;;;;;;;0.90;0.90;;;;;;;;;;5108735;28;20265;-86
2023/02/21 02:23:57;;;;;;;1.27;1.20;;;;;;;;;;5107431;28;20256;-86
2023/02/21 02:27:03;;;;;;;1.33;1.23;;;;;;;;;;5067498;28;20674;-86
2023/02/21 02:30:14;;;;;;;1.47;1.20;;;;;;;;;;5091664;28;20222;-85
2023/02/21 02:33:12;;;;;;;3.13;2.37;;;;;;;;;;5026308;28;20205;-85
2023/02/21 02:35:43;;;;;;;3.37;2.37;;;;;;;;;;5110842;28;20200;-86
2023/02/21 02:38:17;;;;;;;6.03;2.83;;;;;;;;;;5111897;28;20203;-86
2023/02/21 02:40:48;;;;;;;4.67;2.37;;;;;;;;;;5112227;28;20228;-85
2023/02/21 02:43:17;;;;;;;7.47;3.27;;;;;;;;;;5108714;28;20240;-85
2023/02/21 02:45:46;;;;;;;4.63;3.67;;;;;;;;;;5100779;28;20212;-85
2023/02/21 02:48:18;;;;;;;2.43;2.00;;;;;;;;;;5104862;28;20203;-85
2023/02/21 02:50:48;;;;;;;4.10;2.43;;;;;;;;;;5104210;28;20728;-85
2023/02/21 02:53:17;;;;;;;3.37;2.40;;;;;;;;;;5105320;28;20671;-85
2023/02/21 02:55:48;;;;;;;2.73;2.03;;;;;;;;;;5105203;28;20260;-86
2023/02/21 02:58:16;;;;;;;1.57;1.47;;;;;;;;;;5111523;28;20208;-86
2023/02/21 03:00:48;;;;;;;2.63;1.73;;;;;;;;;;5111912;28;20199;-85
2023/02/21 03:03:43;;;;;;;2.50;1.87;;;;;;;;;;5111439;28;20207;-85
2023/02/21 03:06:23;;;;;;;2.70;2.37;;;;;;;;;;5111701;28;20619;-86
2023/02/21 03:08:54;;;;;;;2.10;1.90;;;;;;;;;;5110474;28;20207;-85
2023/02/21 03:11:22;;;;;;;2.03;1.80;;;;;;;;;;5100161;28;20244;-85
2023/02/21 03:13:50;;;;;;;2.17;1.53;;;;;;;;;;5096073;28;20208;-86
2023/02/21 03:16:24;;;;;;;1.87;1.50;;;;;;;;;;5100468;28;20256;-85
2023/02/21 03:18:54;;;;;;;2.97;2.67;;;;;;;;;;5094233;28;20278;-86
2023/02/21 03:21:27;;;;;;;2.07;1.87;;;;;;;;;;5091530;28;20216;-85
2023/02/21 03:23:56;;;;;;;1.60;1.50;;;;;;;;;;5105152;28;20208;-85
2023/02/21 03:26:23;;;;;;;1.50;1.40;;;;;;;;;;5091289;28;20208;-85
2023/02/21 03:28:50;;;;;;;2.00;1.73;;;;;;;;;;5110346;28;20203;-86
2023/02/21 03:31:21;;;;;;;1.53;1.40;;;;;;;;;;5099253;28;20228;-86
2023/02/21 03:33:48;;;;;;;2.70;2.30;;;;;;;;;;5091244;28;20653;-85
2023/02/21 03:36:15;;;;;;;41.37;17.23;;;;;;;;;;5091008;28;20635;-85
2023/02/21 03:38:43;;;;;;;34.03;13.67;;;;;;;;;;5091232;28;20290;-85
2023/02/21 03:41:12;;;;;;;22.30;10.00;;;;;;;;;;5106732;28;20203;-85
2023/02/21 03:43:38;;;;;;;11.93;7.37;;;;;;;;;;5109798;28;20203;-85
2023/02/21 03:46:05;;;;;;;7.77;4.70;;;;;;;;;;5099710;28;20223;-85
2023/02/21 03:48:32;;;;;;;3.87;2.60;;;;;;;;;;5110889;28;20203;-86
2023/02/21 03:50:59;;;;;;;1.90;1.43;;;;;;;;;;5099990;28;20228;-86
2023/02/21 03:53:26;;;;;;;1.23;1.10;;;;;;;;;;5109025;28;20682;-85
2023/02/21 03:55:54;;;;;;;1.73;1.27;;;;;;;;;;5113257;28;20260;-86
2023/02/21 03:58:21;;;;;;;1.00;1.00;;;;;;;;;;5114874;28;20236;-85
2023/02/21 04:00:48;;;;;;;0.90;0.90;;;;;;;;;;5114248;28;20200;-86
2023/02/21 04:03:15;;;;;;;1.73;1.10;;;;;;;;;;5114938;28;20621;-85
2023/02/21 04:05:42;;;;;;;1.37;1.27;;;;;;;;;;5113017;28;20574;-86
2023/02/21 04:08:09;;;;;;;0.90;0.90;;;;;;;;;;5103594;28;20260;-85
2023/02/21 04:10:36;;;;;;;1.30;1.30;;;;;;;;;;5100881;28;20228;-85
2023/02/21 04:13:06;;;;;;;1.53;1.43;;;;;;;;;;5114764;28;20203;-85
2023/02/21 04:15:32;;;;;;;1.70;1.50;;;;;;;;;;5101088;28;20211;-85
2023/02/21 04:17:59;;;;;;;31.57;8.27;;;;;;;;;;5104805;28;20277;-86
2023/02/21 04:20:26;;;;;;;14.97;5.53;;;;;;;;;;5110846;28;20214;-86
2023/02/21 04:22:53;;;;;;;3.70;1.70;;;;;;;;;;5114645;28;20347;-85
2023/02/21 04:25:19;;;;;;;3.00;1.50;;;;;;;;;;5100875;28;20570;-85
2023/02/21 04:27:46;;;;;;;109.33;65.47;;;;;;;;;;5114178;28;20638;-85
2023/02/21 04:30:14;;;;;;;38.27;16.47;;;;;;;;;;5110535;28;20262;-85
2023/02/21 04:32:41;;;;;;;4.10;3.00;;;;;;;;;;5104266;28;20199;-85
2023/02/21 04:35:08;;;;;;;1.83;1.47;;;;;;;;;;5110308;28;20219;-83
2023/02/21 04:37:35;;;;;;;93.47;52.57;;;;;;;;;;5109736;28;20240;-82
2023/02/21 04:40:01;;;;;;;2.87;2.57;;;;;;;;;;5114217;28;20203;-82
2023/02/21 04:42:28;;;;;;;20.13;11.73;;;;;;;;;;5110996;28;20211;-89
2023/02/21 04:44:55;;;;;;;7.20;4.67;;;;;;;;;;5111273;28;20268;-89
2023/02/21 04:47:23;;;;;;;17.17;10.23;;;;;;;;;;5100994;28;20242;-88
2023/02/21 04:49:51;;;;;;;11.17;7.33;;;;;;;;;;5096740;28;20231;-89
2023/02/21 04:52:20;;;;;;;8.30;5.60;;;;;;;;;;5114887;28;20219;-89
2023/02/21 04:54:47;;;;;;;4.37;3.13;;;;;;;;;;5102988;28;20236;-91
2023/02/21 04:57:14;;;;;;;6.53;4.37;;;;;;;;;;5099581;28;20231;-90
2023/02/21 04:59:41;;;;;;;5.50;4.40;;;;;;;;;;5102897;28;20715;-91
2023/02/21 05:02:08;;;;;;;4.50;2.40;;;;;;;;;;5113529;28;20638;-90
2023/02/21 05:04:36;;;;;;;4.27;3.60;;;;;;;;;;5114931;28;20260;-90
2023/02/21 05:07:04;;;;;;;4.90;3.60;;;;;;;;;;5114127;28;20207;-90
2023/02/21 05:09:31;;;;;;;7.93;2.97;;;;;;;;;;5107373;28;20207;-89
2023/02/21 05:11:58;;;;;;;3.30;3.00;;;;;;;;;;5113655;28;20247;-90
2023/02/21 05:14:24;;;;;;;2.87;2.30;;;;;;;;;;5100766;28;20279;-89
2023/02/21 05:16:52;;;;;;;1.33;1.00;;;;;;;;;;5114241;28;20603;-90
2023/02/21 05:19:26;;;;;;;7.10;1.27;;;;;;;;;;5100877;28;20196;-89
2023/02/21 05:21:55;;;;;;;8.60;5.47;;;;;;;;;;5114385;28;20207;-90
2023/02/21 05:24:21;;;;;;;9.97;7.27;;;;;;;;;;5114303;28;20215;-90
2023/02/21 05:26:48;;;;;;;9.83;5.77;;;;;;;;;;5113109;28;20678;-85
2023/02/21 05:29:15;;;;;;;4.27;3.70;;;;;;;;;;5095323;28;20204;-85
2023/02/21 05:31:42;;;;;;;1.60;1.50;;;;;;;;;;5097790;28;20228;-85
2023/02/21 05:34:09;;;;;;;1.57;1.47;;;;;;;;;;5101091;28;20210;-85
2023/02/21 05:36:35;;;;;;;7.93;4.83;;;;;;;;;;5112449;28;20207;-85
2023/02/21 05:39:04;;;;;;;3.17;2.50;;;;;;;;;;5112619;28;20204;-85
2023/02/21 05:41:31;;;;;;;1.93;1.77;;;;;;;;;;5111883;28;20823;-85
2023/02/21 05:43:58;;;;;;;6.33;1.77;;;;;;;;;;5112547;28;20199;-86
2023/02/21 05:46:27;;;;;;;1.10;1.10;;;;;;;;;;5112344;28;20231;-84
2023/02/21 05:48:54;;;;;;;1.40;1.30;;;;;;;;;;5102524;28;20207;-85
2023/02/21 05:51:21;;;;;;;1.03;1.00;;;;;;;;;;5095258;28;20238;-85
2023/02/21 05:53:48;;;;;;;1.57;1.47;;;;;;;;;;5102654;28;20204;-86
2023/02/21 05:56:17;;;;;;;6.13;1.67;;;;;;;;;;5108529;28;20196;-85
2023/02/21 05:58:44;;;;;;;1.73;1.63;;;;;;;;;;5102212;28;20258;-85
2023/02/21 06:01:12;;;;;;;1.73;1.50;;;;;;;;;;5109978;28;20581;-85
2023/02/21 06:03:39;;;;;;;1.90;1.57;;;;;;;;;;5112238;28;20264;-85
2023/02/21 06:06:06;;;;;;;1.30;1.20;;;;;;;;;;5099268;28;20203;-85
2023/02/21 06:08:33;;;;;;;1.43;1.13;;;;;;;;;;5101401;28;20199;-85
2023/02/21 06:10:59;;;;;;;4.83;1.57;;;;;;;;;;5104188;28;20228;-85
2023/02/21 06:13:28;;;;;;;2.30;1.80;;;;;;;;;;5104561;28;20207;-88
2023/02/21 06:15:55;;;;;;;1.70;1.60;;;;;;;;;;5112259;28;20678;-85
2023/02/21 06:18:22;;;;;;;2.80;1.77;;;;;;;;;;5111668;28;20199;-85
2023/02/21 06:20:49;;;;;;;2.57;1.53;;;;;;;;;;5112198;28;20244;-85
2023/02/21 06:23:16;;;;;;;1.80;1.70;;;;;;;;;;5098681;28;20208;-85
2023/02/21 06:25:43;;;;;;;2.10;2.00;;;;;;;;;;5112295;28;20211;-84
2023/02/21 06:28:09;;;;;;;2.10;1.47;;;;;;;;;;5112306;28;20677;-85
2023/02/21 06:30:38;;;;;;;3.07;2.80;;;;;;;;;;5098838;28;20227;-85
2023/02/21 06:33:04;;;;;;;2.70;2.50;;;;;;;;;;5111908;28;20648;-85
2023/02/21 06:35:31;;;;;;;29.07;18.33;;;;;;;;;;5104808;28;20212;-85
2023/02/21 06:37:58;;;;;;;107.83;46.63;;;;;;;;;;5105358;28;20208;-86
2023/02/21 06:40:25;;;;;;;114.33;55.43;;;;;;;;;;5099568;28;20214;-85
2023/02/21 06:42:51;;;;;;;23.93;14.63;;;;;;;;;;5111805;28;20222;-85
2023/02/21 06:45:18;;;;;;;8.97;7.60;;;;;;;;;;5111852;28;20682;-85
2023/02/21 06:47:46;;;;;;;8.97;6.37;;;;;;;;;;5112373;28;20680;-85
2023/02/21 06:50:14;;;;;;;8.27;5.23;;;;;;;;;;5111845;28;20622;-84
2023/02/21 06:52:41;;;;;;;8.40;6.53;;;;;;;;;;5111920;28;20280;-85
2023/02/21 06:55:08;;;;;;;4.20;3.10;;;;;;;;;;5111754;28;20206;-85
2023/02/21 06:57:35;;;;;;;3.40;2.70;;;;;;;;;;5109404;28;20291;-85
2023/02/21 07:00:03;;;;;;;3.83;3.30;;;;;;;;;;5100959;28;20199;-85
2023/02/21 07:02:30;;;;;;;3.40;2.93;;;;;;;;;;5094854;28;20200;-85
2023/02/21 07:04:58;;;;;;;4.20;2.90;;;;;;;;;;5100977;28;20759;-86
2023/02/21 07:07:25;;;;;;;4.63;2.13;;;;;;;;;;5111702;28;20204;-84
2023/02/21 07:09:51;;;;;;;1.70;1.60;;;;;;;;;;5111537;28;20207;-84
2023/02/21 07:12:18;;;;;;;4.90;1.90;;;;;;;;;;5111450;28;20226;-84
2023/02/21 07:14:45;;;;;;;2.97;2.23;;;;;;;;;;5101642;28;20211;-84
2023/02/21 07:17:12;;;;;;;2.07;1.93;;;;;;;;;;5107955;28;20218;-84
2023/02/21 07:19:39;;;;;;;5.03;2.37;;;;;;;;;;5111561;28;20215;-84
2023/02/21 07:22:07;;;;;;;2.07;1.80;;;;;;;;;;5111571;28;20678;-85
2023/02/21 07:24:34;;;;;;;1.17;1.10;;;;;;;;;;5100724;28;20282;-85
2023/02/21 07:27:01;;;;;;;1.33;1.23;;;;;;;;;;5109057;28;20743;-85
2023/02/21 07:29:28;;;;;;;0.90;0.90;;;;;;;;;;5111685;28;20639;-85
2023/02/21 07:31:54;;;;;;;1.07;0.97;;;;;;;;;;5115719;28;20223;-85
2023/02/21 07:34:22;;;;;;;3.27;1.57;;;;;;;;;;5115537;28;20214;-85
2023/02/21 07:36:48;;;;;;;6.40;2.43;;;;;;;;;;5115589;28;20290;-85
2023/02/21 07:39:19;;;;;;;2.10;1.93;;;;;;;;;;5115882;28;20294;-85
2023/02/21 07:41:45;;;;;;;10.43;1.77;;;;;;;;;;5115024;28;20210;-85
2023/02/21 07:44:13;;;;;;;1.03;1.03;;;;;;;;;;5115383;28;20206;-85
2023/02/21 07:46:41;;;;;;;3.40;1.77;;;;;;;;;;5114734;28;20272;-84
2023/02/21 07:49:09;;;;;;;2.50;1.43;;;;;;;;;;5115392;28;20204;-85
2023/02/21 07:51:36;;;;;;;1.40;1.30;;;;;;;;;;5100837;28;20313;-84
2023/02/21 07:54:02;;;;;;;3.20;1.80;;;;;;;;;;5115419;28;20631;-85
2023/02/21 07:56:30;;;;;;;1.13;1.13;;;;;;;;;;5101294;28;20207;-85
2023/02/21 07:58:57;;;;;;;1.97;1.70;;;;;;;;;;5114841;28;20207;-85
2023/02/21 08:01:25;;;;;;;0.70;0.70;;;;;;;;;;5114818;28;20213;-85
2023/02/21 08:03:52;;;;;;;1.30;1.00;;;;;;;;;;5100673;28;20427;-84
2023/02/21 08:06:19;;;;;;;1.20;1.10;;;;;;;;;;5102146;28;20204;-85
2023/02/21 08:08:45;;;;;;;0.97;0.97;;;;;;;;;;5101188;28;20200;-84
2023/02/21 08:11:12;;;;;;;3.23;1.50;;;;;;;;;;5106640;28;20735;-84
2023/02/21 08:13:41;;;;;;;2.93;1.00;;;;;;;;;;5095156;28;20283;-84
2023/02/21 08:16:07;;;;;;;4.20;1.20;;;;;;;;;;5114368;28;20211;-85
2023/02/21 08:18:34;;;;;;;1.50;1.40;;;;;;;;;;5100127;28;20208;-85
2023/02/21 08:21:01;;;;;;;2.00;1.77;;;;;;;;;;5102393;28;20204;-85
2023/02/21 08:23:28;;;;;;;1.53;1.00;;;;;;;;;;5114350;28;20207;-85
2023/02/21 08:25:55;;;;;;;1.13;1.00;;;;;;;;;;5105978;28;20207;-84
2023/02/21 08:28:21;;;;;;;1.50;1.40;;;;;;;;;;5108845;28;20200;-83
2023/02/21 08:30:52;;;;;;;2.07;1.57;;;;;;;;;;5114065;28;20230;-85
2023/02/21 08:33:19;;;;;;;1.63;1.07;;;;;;;;;;5111734;28;20200;-84
2023/02/21 08:35:46;;;;;;;1.60;1.50;;;;;;;;;;5093759;28;20205;-84
2023/02/21 08:38:13;;;;;;;1.10;1.00;;;;;;;;;;5109927;28;20208;-84
2023/02/21 08:40:40;;;;;;;3.47;1.93;;;;;;;;;;5114124;28;20196;-85
2023/02/21 08:43:07;;;;;;;2.90;2.53;;;;;;;;;;5110766;28;20567;-84
2023/02/21 08:45:34;;;;;;;4.13;3.43;;;;;;;;;;5103687;28;20209;-85
2023/02/21 08:48:02;;;;;;;2.63;2.00;;;;;;;;;;5113698;28;20227;-84
2023/02/21 08:50:29;;;;;;;2.10;1.90;;;;;;;;;;5114309;28;20202;-85
2023/02/21 08:52:56;;;;;;;2.87;2.60;;;;;;;;;;5113792;28;20727;-84
2023/02/21 08:55:24;;;;;;;1.97;1.33;;;;;;;;;;5102804;28;20210;-85
2023/02/21 08:57:52;;;;;;;2.57;2.10;;;;;;;;;;5111775;28;20202;-84
2023/02/21 09:00:22;;;;;;;1.07;1.07;;;;;;;;;;5113406;28;20218;-84
2023/02/21 09:02:49;;;;;;;2.30;1.07;;;;;;;;;;5113518;28;20242;-84
2023/02/21 09:05:19;;;;;;;2.43;2.23;;;;;;;;;;5101328;28;20200;-84
2023/02/21 09:07:49;;;;;;;1.00;1.00;;;;;;;;;;5112979;28;20201;-85
2023/02/21 09:10:17;;;;;;;1.37;1.27;;;;;;;;;;5113295;28;20598;-85
2023/02/21 09:12:44;;;;;;;0.90;0.90;;;;;;;;;;5113229;28;20724;-84
2023/02/21 09:15:10;;;;;;;1.90;0.80;;;;;;;;;;5112837;28;20214;-84
2023/02/21 09:17:37;;;;;;;0.67;0.67;;;;;;;;;;5112930;28;20267;-84
2023/02/21 09:20:07;;;;;;;2.70;0.90;;;;;;;;;;5112900;28;20215;-84
2023/02/21 09:22:36;;;;;;;1.00;1.00;;;;;;;;;;5113009;28;20260;-83
2023/02/21 09:25:03;;;;;;;1.70;1.10;;;;;;;;;;5113316;28;20229;-84
2023/02/21 09:27:36;;;;;;;3.43;2.03;;;;;;;;;;5113382;28;20624;-84
2023/02/21 09:30:05;;;;;;;1.40;1.30;;;;;;;;;;5099359;28;20250;-84
2023/02/21 09:32:31;;;;;;;1.50;1.40;;;;;;;;;;5103311;28;20656;-84
2023/02/21 09:34:58;;;;;;;0.97;0.93;;;;;;;;;;5095333;28;20261;-84
2023/02/21 09:37:25;;;;;;;3.07;0.93;;;;;;;;;;5103659;28;20205;-83
2023/02/21 09:39:54;;;;;;;3.63;1.97;;;;;;;;;;5106173;28;20651;-84
2023/02/21 09:42:22;;;;;;;1.07;1.07;;;;;;;;;;5102146;28;20686;-83
2023/02/21 09:44:49;;;;;;;1.70;1.60;;;;;;;;;;5112650;28;20631;-84
2023/02/21 09:47:22;;;;;;;1.43;1.33;;;;;;;;;;5112371;28;20785;-83
2023/02/21 09:49:52;;;;;;;1.63;1.53;;;;;;;;;;5094451;28;20623;-83
2023/02/21 09:52:23;;;;;;;1.57;1.47;;;;;;;;;;5103856;28;20230;-84
2023/02/21 09:54:57;;;;;;;1.00;1.00;;;;;;;;;;5112667;28;20256;-83
2023/02/21 09:57:24;;;;;;;9.07;5.63;;;;;;;;;;5112870;28;20208;-84
2023/02/21 09:59:50;;;;;;;6.20;1.50;;;;;;;;;;5112203;28;20658;-83
2023/02/21 10:02:30;;;;;;;2.60;1.93;;;;;;;;;;5111750;28;20204;-83
2023/02/21 10:05:03;;;;;;;1.20;1.10;;;;;;;;;;5101845;28;20644;-84
2023/02/21 10:07:35;;;;;;;1.40;1.30;;;;;;;;;;5098487;28;20202;-84
2023/02/21 10:10:06;;;;;;;2.37;1.50;;;;;;;;;;5112306;28;20200;-84
2023/02/21 10:12:37;;;;;;;1.30;1.00;;;;;;;;;;5098025;28;20219;-83
2023/02/21 10:15:25;;;;;;;0.87;0.87;;;;;;;;;;5112553;28;20214;-84
2023/02/21 10:17:55;;;;;;;2.00;1.60;;;;;;;;;;5100554;28;20211;-83
2023/02/21 10:20:28;;;;;;;2.30;2.10;;;;;;;;;;5111749;28;20211;-83
2023/02/21 10:22:56;;;;;;;2.10;1.90;;;;;;;;;;5101431;28;20212;-83
2023/02/21 10:25:29;;;;;;;3.83;2.90;;;;;;;;;;5109607;28;20210;-83
2023/02/21 10:27:57;;;;;;;2.50;2.30;;;;;;;;;;5099629;28;20204;-83
2023/02/21 10:30:28;;;;;;;1.83;1.73;;;;;;;;;;5110571;28;20257;-83
2023/02/21 10:32:56;;;;;;;2.53;2.17;;;;;;;;;;5111788;28;20309;-83
2023/02/21 10:35:23;;;;;;;1.77;1.50;;;;;;;;;;5111364;28;20727;-83
2023/02/21 10:37:52;;;;;;;2.50;1.23;;;;;;;;;;5111419;28;20735;-84
2023/02/21 10:40:29;;;;;;;1.83;1.40;;;;;;;;;;5098162;28;20261;-85
2023/02/21 10:43:00;;;;;;;1.87;1.50;;;;;;;;;;5112368;28;20210;-83
2023/02/21 10:45:33;;;;;;;1.57;1.47;;;;;;;;;;5112291;28;20207;-83
2023/02/21 10:48:03;;;;;;;1.33;1.23;;;;;;;;;;5108131;28;20232;-83
2023/02/21 10:50:43;;;;;;;1.30;1.20;;;;;;;;;;5091910;28;20273;-84
2023/02/21 10:53:23;;;;;;;1.07;1.07;;;;;;;;;;5091079;28;20810;-83
2023/02/21 10:56:27;;;;;;;1.00;0.93;;;;;;;;;;5092823;28;20200;-84
2023/02/21 10:58:56;;;;;;;1.40;1.30;;;;;;;;;;5097933;28;20562;-84
2023/02/21 11:01:33;;;;;;;1.60;1.50;;;;;;;;;;5111558;28;20207;-83
2023/02/21 11:04:03;;;;;;;2.83;1.37;;;;;;;;;;5112433;28;20636;-83
2023/02/21 11:06:34;;;;;;;3.43;2.30;;;;;;;;;;5115439;28;20207;-83
2023/02/21 11:09:01;;;;;;;4.37;2.70;;;;;;;;;;5115463;28;20195;-84
2023/02/21 11:11:35;;;;;;;2.30;2.10;;;;;;;;;;5105002;28;20204;-83
2023/02/21 11:14:20;;;;;;;2.73;1.07;;;;;;;;;;5108776;28;20660;-86
2023/02/21 11:17:05;;;;;;;3.23;2.93;;;;;;;;;;5108283;28;20234;-83
2023/02/21 11:19:42;;;;;;;4.00;2.93;;;;;;;;;;5095431;28;20199;-84
2023/02/21 11:22:09;;;;;;;1.40;1.30;;;;;;;;;;5112475;28;20219;-84
2023/02/21 11:24:49;;;;;;;1.90;1.50;;;;;;;;;;5115489;28;20248;-84
2023/02/21 11:27:18;;;;;;;1.60;1.43;;;;;;;;;;5115689;28;20207;-83
2023/02/21 11:29:48;;;;;;;1.57;1.47;;;;;;;;;;5115244;28;20214;-83
2023/02/21 11:32:22;;;;;;;2.67;1.60;;;;;;;;;;5102046;28;20231;-83
2023/02/21 11:34:49;;;;;;;0.93;0.93;;;;;;;;;;5115332;28;20207;-82
2023/02/21 11:37:17;;;;;;;1.53;1.40;;;;;;;;;;5115667;28;20200;-83
2023/02/21 11:39:50;;;;;;;4.20;1.27;;;;;;;;;;5099727;28;20288;-82
2023/02/21 11:42:27;;;;;;;4.90;1.30;;;;;;;;;;5104771;28;20272;-83
2023/02/21 11:45:12;;;;;;;1.20;1.20;;;;;;;;;;5101303;28;20221;-83
2023/02/21 11:47:44;;;;;;;2.57;1.70;;;;;;;;;;5114625;28;20231;-84
2023/02/21 11:50:15;;;;;;;3.00;2.67;;;;;;;;;;5114886;28;20627;-84
2023/02/21 11:52:45;;;;;;;1.20;1.10;;;;;;;;;;5114812;28;20355;-82
2023/02/21 11:55:14;;;;;;;1.03;1.03;;;;;;;;;;5114883;28;20207;-83
2023/02/21 11:57:46;;;;;;;2.20;1.00;;;;;;;;;;5101044;28;20580;-83
2023/02/21 12:00:22;;;;;;;1.63;1.00;;;;;;;;;;5104674;28;20208;-84
2023/02/21 12:03:00;;;;;;;1.30;1.20;;;;;;;;;;5094238;28;20736;-84
2023/02/21 12:05:45;;;;;;;1.20;1.10;;;;;;;;;;5094470;28;20211;-82
2023/02/21 12:08:27;;;;;;;1.27;1.03;;;;;;;;;;5094407;28;20573;-82
2023/02/21 12:11:03;;;;;;;3.03;1.40;;;;;;;;;;5107723;28;20204;-84
2023/02/21 12:13:38;;;;;;;1.30;1.20;;;;;;;;;;5107740;28;20227;-83
2023/02/21 12:16:12;;;;;;;1.00;1.00;;;;;;;;;;5093319;28;20195;-84
2023/02/21 12:19:25;;;;;;;1.93;1.77;;;;;;;;;;5109223;28;20742;-84
2023/02/21 12:22:02;;;;;;;1.47;1.37;;;;;;;;;;5100419;28;20208;-82
2023/02/21 12:24:49;;;;;;;1.70;1.20;;;;;;;;;;5114691;28;20199;-82
2023/02/21 12:27:20;;;;;;;1.17;1.13;;;;;;;;;;5107673;28;20200;-82
2023/02/21 12:30:07;;;;;;;1.10;1.03;;;;;;;;;;5107458;28;20643;-83
2023/02/21 12:32:50;;;;;;;1.40;1.30;;;;;;;;;;5103593;28;20709;-86
2023/02/21 12:36:01;;;;;;;0.70;0.70;;;;;;;;;;5108016;28;20196;-83
2023/02/21 12:38:32;;;;;;;1.40;1.00;;;;;;;;;;5112460;28;20639;-83
2023/02/21 12:41:09;;;;;;;1.90;1.27;;;;;;;;;;5113716;28;20207;-83
2023/02/21 12:43:49;;;;;;;0.90;0.90;;;;;;;;;;5100530;28;20202;-84
2023/02/21 12:46:28;;;;;;;0.90;0.90;;;;;;;;;;5111217;28;20730;-83
2023/02/21 12:49:01;;;;;;;1.20;1.10;;;;;;;;;;5093540;28;20667;-83
2023/02/21 12:51:32;;;;;;;1.00;1.00;;;;;;;;;;5107080;28;20192;-83
2023/02/21 12:54:02;;;;;;;2.53;2.33;;;;;;;;;;5093726;28;20239;-83
2023/02/21 12:56:33;;;;;;;1.00;1.00;;;;;;;;;;5107033;28;20208;-84
2023/02/21 12:59:04;;;;;;;5.97;2.47;;;;;;;;;;5106619;28;20208;-83
2023/02/21 13:01:35;;;;;;;1.40;1.30;;;;;;;;;;5101488;28;20294;-83
2023/02/21 13:04:14;;;;;;;4.80;1.10;;;;;;;;;;5111528;28;20207;-82
2023/02/21 13:06:46;;;;;;;5.57;2.77;;;;;;;;;;5093500;28;20208;-82
2023/02/21 13:09:22;;;;;;;1.00;0.90;;;;;;;;;;5106643;28;20208;-83
2023/02/21 13:11:58;;;;;;;1.70;1.60;;;;;;;;;;5106332;28;20558;-82
2023/02/21 13:14:31;;;;;;;1.57;1.40;;;;;;;;;;5099875;28;20674;-83
2023/02/21 13:16:59;;;;;;;1.13;1.07;;;;;;;;;;5111894;28;20211;-83
2023/02/21 13:19:26;;;;;;;1.00;1.00;;;;;;;;;;5101533;28;20199;-82
2023/02/21 13:22:02;;;;;;;1.63;1.30;;;;;;;;;;5098782;28;20679;-83
2023/02/21 13:24:44;;;;;;;1.23;1.20;;;;;;;;;;5113254;28;20235;-83
2023/02/21 13:27:32;;;;;;;1.47;1.37;;;;;;;;;;5092763;28;20196;-84
2023/02/21 13:30:03;;;;;;;2.73;1.40;;;;;;;;;;5108026;28;20203;-82
2023/02/21 13:32:37;;;;;;;2.73;1.10;;;;;;;;;;5112576;28;20222;-83
2023/02/21 13:35:07;;;;;;;1.27;1.17;;;;;;;;;;5112995;28;20192;-83
2023/02/21 13:37:37;;;;;;;1.93;1.20;;;;;;;;;;5113358;28;20208;-82
2023/02/21 13:40:10;;;;;;;0.80;0.80;;;;;;;;;;5098690;28;20295;-83
2023/02/21 13:42:41;;;;;;;1.37;1.27;;;;;;;;;;5099877;28;20234;-84
2023/02/21 13:45:15;;;;;;;1.00;1.00;;;;;;;;;;5111811;28;20212;-82
2023/02/21 13:48:29;;;;;;;1.43;1.30;;;;;;;;;;5098609;28;20220;-83
2023/02/21 13:50:59;;;;;;;1.20;1.10;;;;;;;;;;5106080;28;20203;-83
2023/02/21 13:53:32;;;;;;;2.40;1.30;;;;;;;;;;5112254;28;20636;-83
2023/02/21 13:56:17;;;;;;;1.13;1.03;;;;;;;;;;5112028;28;20199;-82
2023/02/21 13:58:45;;;;;;;1.97;1.13;;;;;;;;;;5101084;28;20258;-83
2023/02/21 14:01:39;;;;;;;2.87;1.43;;;;;;;;;;5096692;28;20241;-83
2023/02/21 14:04:49;;;;;;;1.50;1.40;;;;;;;;;;5112132;28;20491;-82
2023/02/21 14:07:18;;;;;;;1.63;1.10;;;;;;;;;;5112117;28;20203;-83
2023/02/21 14:09:46;;;;;;;1.30;1.20;;;;;;;;;;5103387;28;20257;-83
2023/02/21 14:12:14;;;;;;;2.33;1.00;;;;;;;;;;5107729;28;20200;-83
2023/02/21 14:14:42;;;;;;;1.33;1.23;;;;;;;;;;5102053;28;20224;-83
2023/02/21 14:17:11;;;;;;;3.00;1.30;;;;;;;;;;5107939;28;20195;-83
2023/02/21 14:19:42;;;;;;;1.23;1.13;;;;;;;;;;5112387;28;20199;-82
2023/02/21 14:22:13;;;;;;;1.90;1.80;;;;;;;;;;5111858;28;20207;-84
2023/02/21 14:24:43;;;;;;;1.57;1.40;;;;;;;;;;5100309;28;20265;-84
2023/02/21 14:27:34;;;;;;;2.40;1.27;;;;;;;;;;5096762;28;20202;-83
2023/02/21 14:30:27;;;;;;;2.70;1.40;;;;;;;;;;5111770;28;20211;-83
2023/02/21 14:32:56;;;;;;;14.10;7.03;;;;;;;;;;5107903;28;20227;-83
2023/02/21 14:35:27;;;;;;;2.83;1.47;;;;;;;;;;5111562;28;20688;-83
2023/02/21 14:37:58;;;;;;;2.37;2.13;;;;;;;;;;5111957;28;20286;-83
2023/02/21 14:40:42;;;;;;;1.50;1.33;;;;;;;;;;5110910;28;20264;-82
2023/02/21 14:43:22;;;;;;;4.50;1.50;;;;;;;;;;5107306;28;20574;-84
2023/02/21 14:46:03;;;;;;;3.60;3.30;;;;;;;;;;5103786;28;20203;-83
2023/02/21 14:48:50;;;;;;;2.17;1.43;;;;;;;;;;5091296;28;20648;-83
2023/02/21 14:51:49;;;;;;;2.03;1.70;;;;;;;;;;5109485;28;20256;-82
2023/02/21 14:54:36;;;;;;;1.60;1.50;;;;;;;;;;5108828;28;20226;-82
2023/02/21 14:57:34;;;;;;;1.50;1.40;;;;;;;;;;5091355;28;20204;-83
2023/02/21 15:00:17;;;;;;;3.47;2.07;;;;;;;;;;5087747;28;20208;-82
2023/02/21 15:02:50;;;;;;;1.70;1.60;;;;;;;;;;5106675;28;20207;-83
2023/02/21 15:05:23;;;;;;;1.60;1.50;;;;;;;;;;5103880;28;20203;-83
2023/02/21 15:07:57;;;;;;;3.17;1.60;;;;;;;;;;5091039;28;20208;-83
2023/02/21 15:10:25;;;;;;;1.70;1.60;;;;;;;;;;5106074;28;20207;-83
2023/02/21 15:12:55;;;;;;;5.93;1.70;;;;;;;;;;5111285;28;20727;-83
2023/02/21 15:15:28;;;;;;;5.63;4.13;;;;;;;;;;5095774;28;20204;-83
2023/02/21 15:18:02;;;;;;;21.97;14.43;;;;;;;;;;5100689;28;20207;-83
2023/02/21 15:20:30;;;;;;;14.10;12.23;;;;;;;;;;5097606;28;20209;-83
2023/02/21 15:22:58;;;;;;;3.40;2.67;;;;;;;;;;5111151;28;20199;-82
2023/02/21 15:25:24;;;;;;;4.10;3.60;;;;;;;;;;5109354;28;20199;-83
2023/02/21 15:28:06;;;;;;;4.33;2.23;;;;;;;;;;5111051;28;20689;-83
2023/02/21 15:30:38;;;;;;;3.27;2.50;;;;;;;;;;5100367;28;20192;-80
2023/02/21 15:33:08;;;;;;;3.33;1.77;;;;;;;;;;5105122;28;20291;-79
2023/02/21 15:35:38;;;;;;;2.20;1.90;;;;;;;;;;5095505;28;20222;-80
2023/02/21 15:38:09;;;;;;;2.83;2.00;;;;;;;;;;5097427;28;20704;-81
2023/02/21 15:40:37;;;;;;;2.57;2.00;;;;;;;;;;5110761;28;20207;-81
2023/02/21 15:43:06;;;;;;;5.83;1.93;;;;;;;;;;5090694;28;20207;-81
2023/02/21 15:45:37;;;;;;;3.00;2.00;;;;;;;;;;5105152;28;20211;-81
2023/02/21 15:48:04;;;;;;;3.53;2.30;;;;;;;;;;5111142;28;20231;-81
2023/02/21 15:50:34;;;;;;;5.23;2.10;;;;;;;;;;5097544;28;20658;-80
2023/02/21 15:53:16;;;;;;;6.60;5.90;;;;;;;;;;5114899;28;20207;-80
2023/02/21 15:55:44;;;;;;;9.17;8.10;;;;;;;;;;5110202;28;20216;-81
2023/02/21 15:58:18;;;;;;;17.07;8.10;;;;;;;;;;5105960;28;20200;-79
2023/02/21 16:00:46;;;;;;;35.93;17.73;;;;;;;;;;5101095;28;20207;-80
2023/02/21 16:03:33;;;;;;;17.63;7.07;;;;;;;;;;5114370;28;20282;-87
2023/02/21 16:06:14;;;;;;;14.60;6.37;;;;;;;;;;5103386;28;20207;-80
2023/02/21 16:08:52;;;;;;;3.10;2.50;;;;;;;;;;5113858;28;20204;-80
2023/02/21 16:11:19;;;;;;;2.40;1.93;;;;;;;;;;5108944;28;20259;-80
2023/02/21 16:13:50;;;;;;;4.23;3.50;;;;;;;;;;5099085;28;20293;-82
2023/02/21 16:16:17;;;;;;;36.90;20.97;;;;;;;;;;5103484;28;20207;-82
2023/02/21 16:18:43;;;;;;;21.13;13.07;;;;;;;;;;5114327;28;20203;-83
2023/02/21 16:21:23;;;;;;;9.80;6.47;;;;;;;;;;5105178;28;20196;-81
2023/02/21 16:23:49;;;;;;;10.30;5.67;;;;;;;;;;5097404;28;20742;-83
2023/02/21 16:26:25;;;;;;;9.83;6.70;;;;;;;;;;5107128;28;20191;-81
2023/02/21 16:28:58;;;;;;;14.30;10.30;;;;;;;;;;5105865;28;20214;-82
2023/02/21 16:31:29;;;;;;;20.13;14.00;;;;;;;;;;5111227;28;20697;-81
2023/02/21 16:33:56;;;;;;;5.17;4.13;;;;;;;;;;5100661;28;20615;-80
2023/02/21 16:36:26;;;;;;;4.13;2.20;;;;;;;;;;5113639;28;21128;-81
2023/02/21 16:38:53;;;;;;;2.00;1.80;;;;;;;;;;5105979;28;20639;-81
2023/02/21 16:41:20;;;;;;;2.70;2.50;;;;;;;;;;5108236;28;20202;-80
2023/02/21 16:43:47;;;;;;;9.53;5.47;;;;;;;;;;5105884;28;20662;-82
2023/02/21 16:46:16;;;;;;;3.87;3.40;;;;;;;;;;5108134;28;20717;-82
2023/02/21 16:48:43;;;;;;;4.10;3.27;;;;;;;;;;5114033;28;20207;-83
2023/02/21 16:51:13;;;;;;;3.23;2.50;;;;;;;;;;5113659;28;20206;-82
2023/02/21 16:53:45;;;;;;;11.57;5.00;;;;;;;;;;5104147;28;20219;-84
2023/02/21 16:56:13;;;;;;;4.30;2.90;;;;;;;;;;5113040;28;20206;-83
2023/02/21 16:58:41;;;;;;;3.17;2.57;;;;;;;;;;5094488;28;20208;-84
2023/02/21 17:01:12;;;;;;;3.23;2.63;;;;;;;;;;5113345;28;20222;-84
2023/02/21 17:03:41;;;;;;;2.80;2.40;;;;;;;;;;5097081;28;20197;-84
2023/02/21 17:06:08;;;;;;;2.87;2.40;;;;;;;;;;5103725;28;20257;-84
2023/02/21 17:08:35;;;;;;;4.83;2.40;;;;;;;;;;5093103;28;20210;-84
2023/02/21 17:11:02;;;;;;;4.20;2.30;;;;;;;;;;5068070;28;20646;-83
2023/02/21 17:13:29;;;;;;;10.37;8.13;;;;;;;;;;5100124;28;20219;-84
2023/02/21 17:15:56;;;;;;;3.50;3.20;;;;;;;;;;5112133;28;20195;-84
2023/02/21 17:18:28;;;;;;;4.33;2.83;;;;;;;;;;5094812;28;20207;-85
2023/02/21 17:20:56;;;;;;;5.93;4.57;;;;;;;;;;5108441;28;20212;-84